sensor_id;sensor_type;location;lat;lon;timestamp;pressure;altitude;pressure_sealevel;temperature
62930;BMP280;49036;42.782;23.108;2023-03-25T00:00:16;-14226.19;;;5.58
62930;BMP280;49036;42.782;23.108;2023-03-25T00:02:48;-14222.03;;;5.45
62930;BMP280;49036;42.782;23.108;2023-03-25T00:05:16;-14219.09;;;5.37
62930;BMP280;49036;42.782;23.108;2023-03-25T00:07:44;-14214.44;;;5.23
62930;BMP280;49036;42.782;23.108;2023-03-25T00:10:11;-14210.47;;;5.11
62930;BMP280;49036;42.782;23.108;2023-03-25T00:12:37;-14203.72;;;4.91
62930;BMP280;49036;42.782;23.108;2023-03-25T00:15:04;-14197.88;;;4.74
62930;BMP280;49036;42.782;23.108;2023-03-25T00:17:30;-14197.34;;;4.73
62930;BMP280;49036;42.782;23.108;2023-03-25T00:19:56;-14196.13;;;4.69
62930;BMP280;49036;42.782;23.108;2023-03-25T00:22:22;-14197.16;;;4.72
62930;BMP280;49036;42.782;23.108;2023-03-25T00:24:48;-14203.56;;;4.91
62930;BMP280;49036;42.782;23.108;2023-03-25T00:27:14;-14203.91;;;4.92
62930;BMP280;49036;42.782;23.108;2023-03-25T00:29:43;-14203.03;;;4.89
62930;BMP280;49036;42.782;23.108;2023-03-25T00:32:09;-14200.09;;;4.81
62930;BMP280;49036;42.782;23.108;2023-03-25T00:34:35;-14199.06;;;4.78
62930;BMP280;49036;42.782;23.108;2023-03-25T00:37:12;-14201.84;;;4.86
62930;BMP280;49036;42.782;23.108;2023-03-25T00:39:43;-14207.72;;;5.03
62930;BMP280;49036;42.782;23.108;2023-03-25T00:42:09;-14209.44;;;5.08
62930;BMP280;49036;42.782;23.108;2023-03-25T00:44:38;-14208.22;;;5.05
62930;BMP280;49036;42.782;23.108;2023-03-25T00:47:04;-14207.88;;;5.04
62930;BMP280;49036;42.782;23.108;2023-03-25T00:49:30;-14206.50;;;5.00
62930;BMP280;49036;42.782;23.108;2023-03-25T00:51:56;-14210.81;;;5.12
62930;BMP280;49036;42.782;23.108;2023-03-25T00:54:22;-14211.84;;;5.15
62930;BMP280;49036;42.782;23.108;2023-03-25T00:56:49;-14209.25;;;5.08
62930;BMP280;49036;42.782;23.108;2023-03-25T00:59:15;-14207.53;;;5.03
62930;BMP280;49036;42.782;23.108;2023-03-25T01:01:40;-14206.16;;;4.99
62930;BMP280;49036;42.782;23.108;2023-03-25T01:04:07;-14205.81;;;4.98
62930;BMP280;49036;42.782;23.108;2023-03-25T01:06:38;-14206.50;;;5.00
62930;BMP280;49036;42.782;23.108;2023-03-25T01:09:17;-14210.13;;;5.10
62930;BMP280;49036;42.782;23.108;2023-03-25T01:11:44;-14210.66;;;5.12
62930;BMP280;49036;42.782;23.108;2023-03-25T01:14:21;-14205.63;;;4.97
62930;BMP280;49036;42.782;23.108;2023-03-25T01:16:49;-14201.13;;;4.84
62930;BMP280;49036;42.782;23.108;2023-03-25T01:19:14;-14202.88;;;4.89
62930;BMP280;49036;42.782;23.108;2023-03-25T01:21:40;-14209.78;;;5.09
62930;BMP280;49036;42.782;23.108;2023-03-25T01:24:07;-14209.25;;;5.08
62930;BMP280;49036;42.782;23.108;2023-03-25T01:26:33;-14207.72;;;5.03
62930;BMP280;49036;42.782;23.108;2023-03-25T01:28:59;-14207.00;;;5.01
62930;BMP280;49036;42.782;23.108;2023-03-25T01:31:25;-14202.34;;;4.87
62930;BMP280;49036;42.782;23.108;2023-03-25T01:33:55;-14195.28;;;4.67
62930;BMP280;49036;42.782;23.108;2023-03-25T01:36:22;-14188.72;;;4.47
62930;BMP280;49036;42.782;23.108;2023-03-25T01:38:50;-14182.31;;;4.28
62930;BMP280;49036;42.782;23.108;2023-03-25T01:41:16;-14178.69;;;4.18
62930;BMP280;49036;42.782;23.108;2023-03-25T01:43:41;-14178.16;;;4.16
62930;BMP280;49036;42.782;23.108;2023-03-25T01:46:11;-14178.69;;;4.18
62930;BMP280;49036;42.782;23.108;2023-03-25T01:48:41;-14180.41;;;4.23
62930;BMP280;49036;42.782;23.108;2023-03-25T01:51:12;-14180.94;;;4.24
62930;BMP280;49036;42.782;23.108;2023-03-25T01:53:39;-14179.91;;;4.21
62930;BMP280;49036;42.782;23.108;2023-03-25T01:56:06;-14182.16;;;4.28
62930;BMP280;49036;42.782;23.108;2023-03-25T01:58:34;-14182.84;;;4.30
62930;BMP280;49036;42.782;23.108;2023-03-25T02:01:01;-14186.28;;;4.40
62930;BMP280;49036;42.782;23.108;2023-03-25T02:03:29;-14184.38;;;4.34
62930;BMP280;49036;42.782;23.108;2023-03-25T02:06:14;-14189.91;;;4.51
62930;BMP280;49036;42.782;23.108;2023-03-25T02:08:42;-14185.78;;;4.39
62930;BMP280;49036;42.782;23.108;2023-03-25T02:11:09;-14182.16;;;4.28
62930;BMP280;49036;42.782;23.108;2023-03-25T02:13:39;-14187.66;;;4.44
62930;BMP280;49036;42.782;23.108;2023-03-25T02:21:49;-14183.53;;;4.32
62930;BMP280;49036;42.782;23.108;2023-03-25T02:26:56;-14176.63;;;4.12
62930;BMP280;49036;42.782;23.108;2023-03-25T02:30:06;-14173.00;;;4.01
62930;BMP280;49036;42.782;23.108;2023-03-25T02:38:39;-14177.47;;;4.14
62930;BMP280;49036;42.782;23.108;2023-03-25T02:41:23;-14175.59;;;4.09
62930;BMP280;49036;42.782;23.108;2023-03-25T02:43:54;-14175.25;;;4.08
62930;BMP280;49036;42.782;23.108;2023-03-25T02:46:21;-14173.84;;;4.03
62930;BMP280;49036;42.782;23.108;2023-03-25T02:51:19;-14170.22;;;3.93
62930;BMP280;49036;42.782;23.108;2023-03-25T02:53:47;-14171.44;;;3.96
62930;BMP280;49036;42.782;23.108;2023-03-25T02:56:17;-14174.53;;;4.05
62930;BMP280;49036;42.782;23.108;2023-03-25T02:58:47;-14177.81;;;4.15
62930;BMP280;49036;42.782;23.108;2023-03-25T03:01:14;-14178.00;;;4.16
62930;BMP280;49036;42.782;23.108;2023-03-25T03:03:40;-14175.75;;;4.09
62930;BMP280;49036;42.782;23.108;2023-03-25T03:06:06;-14176.09;;;4.10
62930;BMP280;49036;42.782;23.108;2023-03-25T03:11:24;-14193.19;;;4.60
62930;BMP280;49036;42.782;23.108;2023-03-25T03:17:25;-14181.09;;;4.25
62930;BMP280;49036;42.782;23.108;2023-03-25T03:25:29;-14175.94;;;4.10
62930;BMP280;49036;42.782;23.108;2023-03-25T03:28:09;-14174.88;;;4.07
62930;BMP280;49036;42.782;23.108;2023-03-25T03:31:10;-14174.38;;;4.05
62930;BMP280;49036;42.782;23.108;2023-03-25T03:33:46;-14172.13;;;3.98
62930;BMP280;49036;42.782;23.108;2023-03-25T03:36:27;-14176.28;;;4.11
62930;BMP280;49036;42.782;23.108;2023-03-25T03:39:45;-14175.41;;;4.08
62930;BMP280;49036;42.782;23.108;2023-03-25T03:41:49;-14191.13;;;4.54
62930;BMP280;49036;42.782;23.108;2023-03-25T03:44:20;-14211.50;;;5.14
62930;BMP280;49036;42.782;23.108;2023-03-25T03:49:27;-14234.13;;;5.81
62930;BMP280;49036;42.782;23.108;2023-03-25T03:52:08;-14234.47;;;5.82
62930;BMP280;49036;42.782;23.108;2023-03-25T03:54:47;-14232.22;;;5.75
62930;BMP280;49036;42.782;23.108;2023-03-25T03:57:49;-14232.94;;;5.77
62930;BMP280;49036;42.782;23.108;2023-03-25T04:00:18;-14225.66;;;5.56
62930;BMP280;49036;42.782;23.108;2023-03-25T04:03:13;-14220.31;;;5.40
62930;BMP280;49036;42.782;23.108;2023-03-25T04:05:48;-14218.75;;;5.36
62930;BMP280;49036;42.782;23.108;2023-03-25T04:08:27;-14221.88;;;5.45
62930;BMP280;49036;42.782;23.108;2023-03-25T04:11:00;-14225.84;;;5.57
62930;BMP280;49036;42.782;23.108;2023-03-25T04:13:34;-14221.53;;;5.44
62930;BMP280;49036;42.782;23.108;2023-03-25T04:16:00;-14216.69;;;5.30
62930;BMP280;49036;42.782;23.108;2023-03-25T04:18:26;-14215.66;;;5.27
62930;BMP280;49036;42.782;23.108;2023-03-25T04:20:53;-14220.31;;;5.40
62930;BMP280;49036;42.782;23.108;2023-03-25T04:23:19;-14220.31;;;5.40
62930;BMP280;49036;42.782;23.108;2023-03-25T04:25:45;-14220.66;;;5.41
62930;BMP280;49036;42.782;23.108;2023-03-25T04:28:14;-14221.19;;;5.43
62930;BMP280;49036;42.782;23.108;2023-03-25T04:30:42;-14222.72;;;5.47
62930;BMP280;49036;42.782;23.108;2023-03-25T04:33:10;-14227.75;;;5.62
62930;BMP280;49036;42.782;23.108;2023-03-25T04:35:36;-14232.41;;;5.76
62930;BMP280;49036;42.782;23.108;2023-03-25T04:38:03;-14235.53;;;5.85
62930;BMP280;49036;42.782;23.108;2023-03-25T04:40:30;-14237.94;;;5.92
62930;BMP280;49036;42.782;23.108;2023-03-25T04:42:56;-14242.44;;;6.05
62930;BMP280;49036;42.782;23.108;2023-03-25T04:45:22;-14247.44;;;6.20
62930;BMP280;49036;42.782;23.108;2023-03-25T04:47:50;-14248.28;;;6.23
62930;BMP280;49036;42.782;23.108;2023-03-25T04:50:22;-14261.78;;;6.62
62930;BMP280;49036;42.782;23.108;2023-03-25T04:52:48;-14275.44;;;7.02
62930;BMP280;49036;42.782;23.108;2023-03-25T04:55:14;-14274.41;;;6.99
62930;BMP280;49036;42.782;23.108;2023-03-25T04:57:43;-14271.97;;;6.92
62930;BMP280;49036;42.782;23.108;2023-03-25T05:00:11;-14271.81;;;6.92
62930;BMP280;49036;42.782;23.108;2023-03-25T05:02:42;-14276.47;;;7.06
62930;BMP280;49036;42.782;23.108;2023-03-25T05:05:09;-14280.63;;;7.18
62930;BMP280;49036;42.782;23.108;2023-03-25T05:07:42;-14285.81;;;7.33
62930;BMP280;49036;42.782;23.108;2023-03-25T05:10:09;-14289.09;;;7.43
62930;BMP280;49036;42.782;23.108;2023-03-25T05:12:35;-14294.09;;;7.57
62930;BMP280;49036;42.782;23.108;2023-03-25T05:15:01;-14296.53;;;7.65
62930;BMP280;49036;42.782;23.108;2023-03-25T05:17:26;-14301.88;;;7.80
62930;BMP280;49036;42.782;23.108;2023-03-25T05:19:54;-14303.59;;;7.85
62930;BMP280;49036;42.782;23.108;2023-03-25T05:22:21;-14309.66;;;8.03
62930;BMP280;49036;42.782;23.108;2023-03-25T05:24:47;-14318.81;;;8.30
62930;BMP280;49036;42.782;23.108;2023-03-25T05:27:12;-14325.56;;;8.50
62930;BMP280;49036;42.782;23.108;2023-03-25T05:29:38;-14329.69;;;8.62
62930;BMP280;49036;42.782;23.108;2023-03-25T05:32:04;-14328.84;;;8.60
62930;BMP280;49036;42.782;23.108;2023-03-25T05:34:30;-14332.47;;;8.70
62930;BMP280;49036;42.782;23.108;2023-03-25T05:36:56;-14331.78;;;8.68
62930;BMP280;49036;42.782;23.108;2023-03-25T05:39:21;-14329.88;;;8.63
62930;BMP280;49036;42.782;23.108;2023-03-25T05:41:48;-14329.53;;;8.62
62930;BMP280;49036;42.782;23.108;2023-03-25T05:44:14;-14331.94;;;8.69
62930;BMP280;49036;42.782;23.108;2023-03-25T05:46:43;-14333.69;;;8.74
62930;BMP280;49036;42.782;23.108;2023-03-25T05:49:08;-14339.56;;;8.91
62930;BMP280;49036;42.782;23.108;2023-03-25T05:51:34;-14352.19;;;9.28
62930;BMP280;49036;42.782;23.108;2023-03-25T05:54:03;-14365.16;;;9.66
62930;BMP280;49036;42.782;23.108;2023-03-25T05:56:35;-14370.84;;;9.83
62930;BMP280;49036;42.782;23.108;2023-03-25T05:59:01;-14376.56;;;10.00
62930;BMP280;49036;42.782;23.108;2023-03-25T06:01:27;-14385.56;;;10.26
62930;BMP280;49036;42.782;23.108;2023-03-25T06:03:53;-14397.66;;;10.62
62930;BMP280;49036;42.782;23.108;2023-03-25T06:06:20;-14406.31;;;10.87
62930;BMP280;49036;42.782;23.108;2023-03-25T06:08:48;-14413.06;;;11.07
62930;BMP280;49036;42.782;23.108;2023-03-25T06:11:18;-14414.44;;;11.11
62930;BMP280;49036;42.782;23.108;2023-03-25T06:13:45;-14417.56;;;11.20
62930;BMP280;49036;42.782;23.108;2023-03-25T06:16:21;-14418.78;;;11.24
62930;BMP280;49036;42.782;23.108;2023-03-25T06:18:51;-14421.72;;;11.32
62930;BMP280;49036;42.782;23.108;2023-03-25T06:21:23;-14422.41;;;11.34
62930;BMP280;49036;42.782;23.108;2023-03-25T06:23:51;-14423.09;;;11.37
62930;BMP280;49036;42.782;23.108;2023-03-25T06:26:19;-14424.66;;;11.41
62930;BMP280;49036;42.782;23.108;2023-03-25T06:28:46;-14427.25;;;11.49
62930;BMP280;49036;42.782;23.108;2023-03-25T06:31:13;-14432.09;;;11.63
62930;BMP280;49036;42.782;23.108;2023-03-25T06:33:42;-14435.53;;;11.73
62930;BMP280;49036;42.782;23.108;2023-03-25T06:36:08;-14442.28;;;11.93
62930;BMP280;49036;42.782;23.108;2023-03-25T06:38:36;-14456.84;;;12.36
62930;BMP280;49036;42.782;23.108;2023-03-25T06:41:03;-14460.28;;;12.46
62930;BMP280;49036;42.782;23.108;2023-03-25T06:43:28;-14464.63;;;12.58
62930;BMP280;49036;42.782;23.108;2023-03-25T06:45:54;-14467.38;;;12.67
62930;BMP280;49036;42.782;23.108;2023-03-25T06:48:19;-14478.81;;;13.00
62930;BMP280;49036;42.782;23.108;2023-03-25T06:50:45;-14486.59;;;13.23
62930;BMP280;49036;42.782;23.108;2023-03-25T06:53:10;-14497.31;;;13.54
62930;BMP280;49036;42.782;23.108;2023-03-25T06:55:36;-14508.91;;;13.88
62930;BMP280;49036;42.782;23.108;2023-03-25T06:58:03;-14528.13;;;14.45
62930;BMP280;49036;42.782;23.108;2023-03-25T07:00:29;-14520.50;;;14.22
62930;BMP280;49036;42.782;23.108;2023-03-25T07:02:55;-14535.22;;;14.66
62930;BMP280;49036;42.782;23.108;2023-03-25T07:05:23;-14550.47;;;15.10
62930;BMP280;49036;42.782;23.108;2023-03-25T07:07:48;-14558.78;;;15.35
62930;BMP280;49036;42.782;23.108;2023-03-25T07:10:14;-14573.84;;;15.79
62930;BMP280;49036;42.782;23.108;2023-03-25T07:12:40;-14578.50;;;15.92
62930;BMP280;49036;42.782;23.108;2023-03-25T07:15:06;-14592.38;;;16.33
62930;BMP280;49036;42.782;23.108;2023-03-25T07:17:32;-14602.25;;;16.62
62930;BMP280;49036;42.782;23.108;2023-03-25T07:19:58;-14601.03;;;16.58
62930;BMP280;49036;42.782;23.108;2023-03-25T07:22:24;-14614.00;;;16.96
62930;BMP280;49036;42.782;23.108;2023-03-25T07:24:50;-14611.41;;;16.89
62930;BMP280;49036;42.782;23.108;2023-03-25T07:27:17;-14604.13;;;16.67
62930;BMP280;49036;42.782;23.108;2023-03-25T07:29:43;-14598.09;;;16.50
62930;BMP280;49036;42.782;23.108;2023-03-25T07:32:08;-14607.59;;;16.78
62930;BMP280;49036;42.782;23.108;2023-03-25T07:34:34;-14610.38;;;16.86
62930;BMP280;49036;42.782;23.108;2023-03-25T07:36:59;-14611.59;;;16.89
62930;BMP280;49036;42.782;23.108;2023-03-25T07:39:25;-14599.47;;;16.54
62930;BMP280;49036;42.782;23.108;2023-03-25T07:41:51;-14588.22;;;16.21
62930;BMP280;49036;42.782;23.108;2023-03-25T07:45:31;-14577.13;;;15.88
62930;BMP280;49036;42.782;23.108;2023-03-25T07:48:00;-14594.28;;;16.39
62930;BMP280;49036;42.782;23.108;2023-03-25T07:50:25;-14588.22;;;16.21
62930;BMP280;49036;42.782;23.108;2023-03-25T07:52:52;-14587.50;;;16.19
62930;BMP280;49036;42.782;23.108;2023-03-25T07:55:17;-14583.03;;;16.06
62930;BMP280;49036;42.782;23.108;2023-03-25T07:57:43;-14592.53;;;16.33
62930;BMP280;49036;42.782;23.108;2023-03-25T08:00:09;-14601.72;;;16.60
62930;BMP280;49036;42.782;23.108;2023-03-25T08:02:36;-14616.59;;;17.04
62930;BMP280;49036;42.782;23.108;2023-03-25T08:05:04;-14632.38;;;17.50
62930;BMP280;49036;42.782;23.108;2023-03-25T08:07:31;-14646.41;;;17.91
62930;BMP280;49036;42.782;23.108;2023-03-25T08:09:57;-14626.47;;;17.33
62930;BMP280;49036;42.782;23.108;2023-03-25T08:12:22;-14601.91;;;16.61
62930;BMP280;49036;42.782;23.108;2023-03-25T08:14:48;-14612.78;;;16.93
62930;BMP280;49036;42.782;23.108;2023-03-25T08:17:13;-14616.09;;;17.02
62930;BMP280;49036;42.782;23.108;2023-03-25T08:19:40;-14621.97;;;17.20
62930;BMP280;49036;42.782;23.108;2023-03-25T08:22:05;-14616.44;;;17.04
62930;BMP280;49036;42.782;23.108;2023-03-25T08:24:31;-14618.50;;;17.10
62930;BMP280;49036;42.782;23.108;2023-03-25T08:26:57;-14613.84;;;16.96
62930;BMP280;49036;42.782;23.108;2023-03-25T08:29:26;-14603.63;;;16.66
62930;BMP280;49036;42.782;23.108;2023-03-25T08:31:52;-14594.78;;;16.40
62930;BMP280;49036;42.782;23.108;2023-03-25T08:34:19;-14585.44;;;16.13
62930;BMP280;49036;42.782;23.108;2023-03-25T08:36:46;-14591.31;;;16.30
62930;BMP280;49036;42.782;23.108;2023-03-25T08:39:11;-14600.69;;;16.57
62930;BMP280;49036;42.782;23.108;2023-03-25T08:41:42;-14611.59;;;16.89
62930;BMP280;49036;42.782;23.108;2023-03-25T08:44:09;-14631.50;;;17.48
62930;BMP280;49036;42.782;23.108;2023-03-25T08:46:35;-14640.50;;;17.74
62930;BMP280;49036;42.782;23.108;2023-03-25T08:49:01;-14660.44;;;18.32
62930;BMP280;49036;42.782;23.108;2023-03-25T08:51:28;-14638.44;;;17.68
62930;BMP280;49036;42.782;23.108;2023-03-25T08:53:53;-14654.53;;;18.15
62930;BMP280;49036;42.782;23.108;2023-03-25T08:56:19;-14654.53;;;18.15
62930;BMP280;49036;42.782;23.108;2023-03-25T08:58:44;-14684.69;;;19.03
62930;BMP280;49036;42.782;23.108;2023-03-25T09:01:10;-14681.72;;;18.95
62930;BMP280;49036;42.782;23.108;2023-03-25T09:03:36;-14680.53;;;18.91
62930;BMP280;49036;42.782;23.108;2023-03-25T09:06:04;-14696.13;;;19.37
62930;BMP280;49036;42.782;23.108;2023-03-25T09:08:30;-14684.50;;;19.03
62930;BMP280;49036;42.782;23.108;2023-03-25T09:10:57;-14695.41;;;19.35
62930;BMP280;49036;42.782;23.108;2023-03-25T09:13:22;-14710.13;;;19.78
62930;BMP280;49036;42.782;23.108;2023-03-25T09:15:48;-14717.06;;;19.98
62930;BMP280;49036;42.782;23.108;2023-03-25T09:18:13;-14708.25;;;19.72
62930;BMP280;49036;42.782;23.108;2023-03-25T09:20:39;-14704.75;;;19.62
62930;BMP280;49036;42.782;23.108;2023-03-25T09:23:05;-14722.97;;;20.15
62930;BMP280;49036;42.782;23.108;2023-03-25T09:25:31;-14742.38;;;20.72
62930;BMP280;49036;42.782;23.108;2023-03-25T09:28:50;-14774.94;;;21.67
62930;BMP280;49036;42.782;23.108;2023-03-25T09:31:16;-14758.13;;;21.18
62930;BMP280;49036;42.782;23.108;2023-03-25T09:34:05;-14743.56;;;20.76
62930;BMP280;49036;42.782;23.108;2023-03-25T09:36:31;-14719.66;;;20.06
62930;BMP280;49036;42.782;23.108;2023-03-25T09:38:57;-14725.38;;;20.23
62930;BMP280;49036;42.782;23.108;2023-03-25T09:46:38;-14750.69;;;20.96
62930;BMP280;49036;42.782;23.108;2023-03-25T09:49:12;-14772.16;;;21.59
62930;BMP280;49036;42.782;23.108;2023-03-25T09:51:39;-14759.88;;;21.23
62930;BMP280;49036;42.782;23.108;2023-03-25T09:56:43;-14750.16;;;20.95
62930;BMP280;49036;42.782;23.108;2023-03-25T09:59:19;-14759.69;;;21.23
62930;BMP280;49036;42.782;23.108;2023-03-25T10:04:54;-14757.97;;;21.18
62930;BMP280;49036;42.782;23.108;2023-03-25T10:10:42;-14751.03;;;20.98
62930;BMP280;49036;42.782;23.108;2023-03-25T10:16:25;-14753.47;;;21.05
62930;BMP280;49036;42.782;23.108;2023-03-25T10:19:11;-14756.91;;;21.15
62930;BMP280;49036;42.782;23.108;2023-03-25T10:24:25;-14748.09;;;20.89
62930;BMP280;49036;42.782;23.108;2023-03-25T10:26:54;-14774.59;;;21.66
62930;BMP280;49036;42.782;23.108;2023-03-25T10:29:29;-14799.72;;;22.40
62930;BMP280;49036;42.782;23.108;2023-03-25T10:32:00;-14832.66;;;23.36
62930;BMP280;49036;42.782;23.108;2023-03-25T10:34:48;-14855.19;;;24.02
62930;BMP280;49036;42.782;23.108;2023-03-25T10:37:22;-14875.09;;;24.60
62930;BMP280;49036;42.782;23.108;2023-03-25T10:39:56;-14859.16;;;24.14
62930;BMP280;49036;42.782;23.108;2023-03-25T10:42:28;-14840.63;;;23.59
62930;BMP280;49036;42.782;23.108;2023-03-25T10:44:56;-14851.00;;;23.90
62930;BMP280;49036;42.782;23.108;2023-03-25T10:49:54;-14890.53;;;25.05
62930;BMP280;49036;42.782;23.108;2023-03-25T10:52:20;-14856.75;;;24.07
62930;BMP280;49036;42.782;23.108;2023-03-25T10:54:51;-14834.03;;;23.40
62930;BMP280;49036;42.782;23.108;2023-03-25T10:57:22;-14826.22;;;23.17
62930;BMP280;49036;42.782;23.108;2023-03-25T11:00:05;-14822.75;;;23.07
62930;BMP280;49036;42.782;23.108;2023-03-25T11:04:34;-14793.66;;;22.22
62930;BMP280;49036;42.782;23.108;2023-03-25T11:07:01;-14770.25;;;21.54
62930;BMP280;49036;42.782;23.108;2023-03-25T11:09:30;-14771.81;;;21.58
62930;BMP280;49036;42.782;23.108;2023-03-25T11:12:02;-14763.66;;;21.34
62930;BMP280;49036;42.782;23.108;2023-03-25T11:14:29;-14754.84;;;21.09
62930;BMP280;49036;42.782;23.108;2023-03-25T11:16:59;-14753.47;;;21.05
62930;BMP280;49036;42.782;23.108;2023-03-25T11:19:29;-14744.63;;;20.79
62930;BMP280;49036;42.782;23.108;2023-03-25T11:22:30;-14733.53;;;20.46
62930;BMP280;49036;42.782;23.108;2023-03-25T11:25:22;-14726.59;;;20.26
62930;BMP280;49036;42.782;23.108;2023-03-25T11:27:58;-14714.81;;;19.92
62930;BMP280;49036;42.782;23.108;2023-03-25T11:30:26;-14710.31;;;19.78
62930;BMP280;49036;42.782;23.108;2023-03-25T11:33:12;-14713.44;;;19.88
62930;BMP280;49036;42.782;23.108;2023-03-25T11:35:42;-14714.13;;;19.90
62930;BMP280;49036;42.782;23.108;2023-03-25T11:38:18;-14713.97;;;19.89
62930;BMP280;49036;42.782;23.108;2023-03-25T11:40:53;-14712.06;;;19.83
62930;BMP280;49036;42.782;23.108;2023-03-25T11:43:25;-14713.44;;;19.88
62930;BMP280;49036;42.782;23.108;2023-03-25T11:45:52;-14718.47;;;20.02
62930;BMP280;49036;42.782;23.108;2023-03-25T11:48:21;-14704.41;;;19.61
62930;BMP280;49036;42.782;23.108;2023-03-25T11:50:49;-14705.47;;;19.64
62930;BMP280;49036;42.782;23.108;2023-03-25T11:53:19;-14700.09;;;19.48
62930;BMP280;49036;42.782;23.108;2023-03-25T11:55:49;-14707.19;;;19.69
62930;BMP280;49036;42.782;23.108;2023-03-25T11:58:19;-14710.84;;;19.80
62930;BMP280;49036;42.782;23.108;2023-03-25T12:00:51;-14714.13;;;19.90
62930;BMP280;49036;42.782;23.108;2023-03-25T12:03:19;-14717.41;;;19.99
62930;BMP280;49036;42.782;23.108;2023-03-25T12:06:03;-14708.94;;;19.74
62930;BMP280;49036;42.782;23.108;2023-03-25T12:08:41;-14702.88;;;19.57
62930;BMP280;49036;42.782;23.108;2023-03-25T12:11:45;-14710.84;;;19.80
62930;BMP280;49036;42.782;23.108;2023-03-25T12:20:02;-14707.19;;;19.69
62930;BMP280;49036;42.782;23.108;2023-03-25T12:27:50;-14713.59;;;19.88
62930;BMP280;49036;42.782;23.108;2023-03-25T12:55:05;-14723.66;;;20.17
62930;BMP280;49036;42.782;23.108;2023-03-25T13:03:26;-14699.91;;;19.48
62930;BMP280;49036;42.782;23.108;2023-03-25T13:06:16;-14683.47;;;19.00
62930;BMP280;49036;42.782;23.108;2023-03-25T13:08:58;-14664.06;;;18.43
62930;BMP280;49036;42.782;23.108;2023-03-25T13:11:32;-14652.63;;;18.10
62930;BMP280;49036;42.782;23.108;2023-03-25T13:14:05;-14645.88;;;17.90
62930;BMP280;49036;42.782;23.108;2023-03-25T13:18:20;-14634.28;;;17.56
62930;BMP280;49036;42.782;23.108;2023-03-25T13:24:15;-14623.69;;;17.25
62930;BMP280;49036;42.782;23.108;2023-03-25T13:26:43;-14618.69;;;17.10
62930;BMP280;49036;42.782;23.108;2023-03-25T13:29:32;-14616.44;;;17.04
62930;BMP280;49036;42.782;23.108;2023-03-25T13:32:03;-14614.19;;;16.97
62930;BMP280;49036;42.782;23.108;2023-03-25T13:34:52;-14611.59;;;16.89
62930;BMP280;49036;42.782;23.108;2023-03-25T13:37:24;-14610.19;;;16.85
62930;BMP280;49036;42.782;23.108;2023-03-25T13:40:01;-14611.75;;;16.90
62930;BMP280;49036;42.782;23.108;2023-03-25T13:42:52;-14609.00;;;16.82
62930;BMP280;49036;42.782;23.108;2023-03-25T13:45:22;-14603.09;;;16.64
62930;BMP280;49036;42.782;23.108;2023-03-25T13:48:12;-14596.88;;;16.46
62930;BMP280;49036;42.782;23.108;2023-03-25T13:50:40;-14586.31;;;16.15
62930;BMP280;49036;42.782;23.108;2023-03-25T13:53:20;-14564.47;;;15.51
62930;BMP280;49036;42.782;23.108;2023-03-25T13:56:03;-14551.16;;;15.12
62930;BMP280;49036;42.782;23.108;2023-03-25T13:58:45;-14539.56;;;14.78
62930;BMP280;49036;42.782;23.108;2023-03-25T14:01:26;-14527.09;;;14.42
62930;BMP280;49036;42.782;23.108;2023-03-25T14:12:48;-14499.22;;;13.60
62930;BMP280;49036;42.782;23.108;2023-03-25T14:15:38;-14502.34;;;13.69
62930;BMP280;49036;42.782;23.108;2023-03-25T14:18:04;-14506.66;;;13.82
62930;BMP280;49036;42.782;23.108;2023-03-25T14:20:38;-14508.91;;;13.88
62930;BMP280;49036;42.782;23.108;2023-03-25T14:23:06;-14514.47;;;14.05
62930;BMP280;49036;42.782;23.108;2023-03-25T14:28:06;-14538.00;;;14.74
62930;BMP280;49036;42.782;23.108;2023-03-25T14:30:33;-14545.44;;;14.95
62930;BMP280;49036;42.782;23.108;2023-03-25T14:33:00;-14551.16;;;15.12
62930;BMP280;49036;42.782;23.108;2023-03-25T14:48:35;-14577.81;;;15.90
62930;BMP280;49036;42.782;23.108;2023-03-25T14:53:41;-14590.97;;;16.29
62930;BMP280;49036;42.782;23.108;2023-03-25T14:56:21;-14586.31;;;16.15
62930;BMP280;49036;42.782;23.108;2023-03-25T14:58:53;-14587.16;;;16.18
62930;BMP280;49036;42.782;23.108;2023-03-25T15:01:26;-14579.91;;;15.96
62930;BMP280;49036;42.782;23.108;2023-03-25T15:04:28;-14574.88;;;15.82
62930;BMP280;49036;42.782;23.108;2023-03-25T15:06:53;-14575.03;;;15.82
62930;BMP280;49036;42.782;23.108;2023-03-25T15:09:20;-14576.94;;;15.88
62930;BMP280;49036;42.782;23.108;2023-03-25T15:12:13;-14570.03;;;15.68
62930;BMP280;49036;42.782;23.108;2023-03-25T15:14:41;-14572.97;;;15.76
62930;BMP280;49036;42.782;23.108;2023-03-25T15:17:12;-14574.34;;;15.80
62930;BMP280;49036;42.782;23.108;2023-03-25T15:22:23;-14579.38;;;15.95
62930;BMP280;49036;42.782;23.108;2023-03-25T15:24:54;-14582.50;;;16.04
62930;BMP280;49036;42.782;23.108;2023-03-25T15:46:31;-14569.16;;;15.65
62930;BMP280;49036;42.782;23.108;2023-03-25T15:49:25;-14563.97;;;15.50
62930;BMP280;49036;42.782;23.108;2023-03-25T15:54:40;-14550.63;;;15.11
62930;BMP280;49036;42.782;23.108;2023-03-25T16:00:03;-14583.19;;;16.06
62930;BMP280;49036;42.782;23.108;2023-03-25T16:02:47;-14603.28;;;16.65
62930;BMP280;49036;42.782;23.108;2023-03-25T16:05:15;-14608.66;;;16.81
62930;BMP280;49036;42.782;23.108;2023-03-25T16:07:42;-14632.72;;;17.51
62930;BMP280;49036;42.782;23.108;2023-03-25T16:10:29;-14689.53;;;19.18
62930;BMP280;49036;42.782;23.108;2023-03-25T16:13:01;-14698.88;;;19.45
62930;BMP280;49036;42.782;23.108;2023-03-25T16:15:29;-14692.31;;;19.26
62930;BMP280;49036;42.782;23.108;2023-03-25T16:17:57;-14718.81;;;20.03
62930;BMP280;49036;42.782;23.108;2023-03-25T16:20:27;-14737.69;;;20.58
62930;BMP280;49036;42.782;23.108;2023-03-25T16:22:58;-14735.44;;;20.52
62930;BMP280;49036;42.782;23.108;2023-03-25T16:25:35;-14719.16;;;20.04
62930;BMP280;49036;42.782;23.108;2023-03-25T16:28:12;-14695.41;;;19.35
62930;BMP280;49036;42.782;23.108;2023-03-25T16:30:41;-14654.72;;;18.16
62930;BMP280;49036;42.782;23.108;2023-03-25T16:35:41;-14576.25;;;15.86
62930;BMP280;49036;42.782;23.108;2023-03-25T16:38:07;-14548.03;;;15.03
62930;BMP280;49036;42.782;23.108;2023-03-25T16:40:39;-14528.81;;;14.47
62930;BMP280;49036;42.782;23.108;2023-03-25T16:43:24;-14513.44;;;14.02
62930;BMP280;49036;42.782;23.108;2023-03-25T16:45:54;-14495.59;;;13.49
62930;BMP280;49036;42.782;23.108;2023-03-25T16:51:09;-14480.53;;;13.05